sensor_id;sensor_type;location;lat;lon;timestamp;P1;durP1;ratioP1;P2;durP2;ratioP2
58071;SDS011;60383;46.626;18.866;2024-01-30T00:01:50;19.52;;;11.55;;
58071;SDS011;60383;46.626;18.866;2024-01-30T00:04:16;23.02;;;12.80;;
58071;SDS011;60383;46.626;18.866;2024-01-30T00:06:42;20.45;;;12.20;;
58071;SDS011;60383;46.626;18.866;2024-01-30T00:09:08;18.70;;;11.98;;
58071;SDS011;60383;46.626;18.866;2024-01-30T00:11:35;22.02;;;12.50;;
58071;SDS011;60383;46.626;18.866;2024-01-30T00:14:00;21.50;;;12.40;;
58071;SDS011;60383;46.626;18.866;2024-01-30T00:16:26;18.27;;;11.80;;
58071;SDS011;60383;46.626;18.866;2024-01-30T00:18:52;20.92;;;12.73;;
58071;SDS011;60383;46.626;18.866;2024-01-30T00:21:18;19.77;;;12.00;;
58071;SDS011;60383;46.626;18.866;2024-01-30T00:23:44;22.00;;;12.18;;
58071;SDS011;60383;46.626;18.866;2024-01-30T00:26:09;18.15;;;11.23;;
58071;SDS011;60383;46.626;18.866;2024-01-30T00:28:36;18.65;;;11.23;;
58071;SDS011;60383;46.626;18.866;2024-01-30T00:31:04;19.20;;;11.88;;
58071;SDS011;60383;46.626;18.866;2024-01-30T00:33:30;20.23;;;11.93;;
58071;SDS011;60383;46.626;18.866;2024-01-30T00:35:56;20.55;;;12.30;;
58071;SDS011;60383;46.626;18.866;2024-01-30T00:38:21;22.13;;;12.48;;
58071;SDS011;60383;46.626;18.866;2024-01-30T00:40:47;19.52;;;11.63;;
58071;SDS011;60383;46.626;18.866;2024-01-30T00:43:13;20.45;;;11.88;;
58071;SDS011;60383;46.626;18.866;2024-01-30T00:45:38;22.33;;;12.35;;
58071;SDS011;60383;46.626;18.866;2024-01-30T00:48:04;19.52;;;11.85;;
58071;SDS011;60383;46.626;18.866;2024-01-30T00:50:30;19.63;;;11.95;;
58071;SDS011;60383;46.626;18.866;2024-01-30T00:52:55;20.27;;;11.93;;
58071;SDS011;60383;46.626;18.866;2024-01-30T00:55:20;23.48;;;11.90;;
58071;SDS011;60383;46.626;18.866;2024-01-30T00:57:46;19.70;;;11.13;;
58071;SDS011;60383;46.626;18.866;2024-01-30T01:00:12;17.30;;;11.50;;
58071;SDS011;60383;46.626;18.866;2024-01-30T01:02:41;19.88;;;12.32;;
58071;SDS011;60383;46.626;18.866;2024-01-30T01:05:06;22.58;;;12.13;;
58071;SDS011;60383;46.626;18.866;2024-01-30T01:07:32;20.13;;;12.60;;
58071;SDS011;60383;46.626;18.866;2024-01-30T01:09:57;20.00;;;12.20;;
58071;SDS011;60383;46.626;18.866;2024-01-30T01:12:23;20.38;;;12.20;;
58071;SDS011;60383;46.626;18.866;2024-01-30T01:14:48;17.50;;;12.30;;
58071;SDS011;60383;46.626;18.866;2024-01-30T01:17:14;19.90;;;11.77;;
58071;SDS011;60383;46.626;18.866;2024-01-30T01:19:39;20.95;;;12.27;;
58071;SDS011;60383;46.626;18.866;2024-01-30T01:22:05;19.70;;;12.25;;
58071;SDS011;60383;46.626;18.866;2024-01-30T01:24:31;19.20;;;12.07;;
58071;SDS011;60383;46.626;18.866;2024-01-30T01:26:58;21.92;;;13.25;;
58071;SDS011;60383;46.626;18.866;2024-01-30T01:29:23;21.45;;;13.45;;
58071;SDS011;60383;46.626;18.866;2024-01-30T01:31:54;21.10;;;13.10;;
58071;SDS011;60383;46.626;18.866;2024-01-30T01:34:23;26.25;;;13.63;;
58071;SDS011;60383;46.626;18.866;2024-01-30T01:36:49;21.50;;;12.68;;
58071;SDS011;60383;46.626;18.866;2024-01-30T01:39:15;20.65;;;12.68;;
58071;SDS011;60383;46.626;18.866;2024-01-30T01:41:41;22.75;;;13.30;;
58071;SDS011;60383;46.626;18.866;2024-01-30T01:44:07;21.25;;;13.00;;
58071;SDS011;60383;46.626;18.866;2024-01-30T01:46:32;21.73;;;13.38;;
58071;SDS011;60383;46.626;18.866;2024-01-30T01:48:59;24.20;;;13.45;;
58071;SDS011;60383;46.626;18.866;2024-01-30T01:51:27;21.50;;;12.77;;
58071;SDS011;60383;46.626;18.866;2024-01-30T01:53:56;23.08;;;13.13;;
58071;SDS011;60383;46.626;18.866;2024-01-30T01:56:23;22.92;;;12.73;;
58071;SDS011;60383;46.626;18.866;2024-01-30T01:58:48;22.58;;;13.45;;
58071;SDS011;60383;46.626;18.866;2024-01-30T02:01:16;24.88;;;14.18;;
58071;SDS011;60383;46.626;18.866;2024-01-30T02:03:43;21.95;;;12.40;;
58071;SDS011;60383;46.626;18.866;2024-01-30T02:06:10;20.00;;;13.13;;
58071;SDS011;60383;46.626;18.866;2024-01-30T02:08:36;23.27;;;13.35;;
58071;SDS011;60383;46.626;18.866;2024-01-30T02:11:02;24.42;;;13.25;;
58071;SDS011;60383;46.626;18.866;2024-01-30T02:13:28;21.92;;;14.30;;
58071;SDS011;60383;46.626;18.866;2024-01-30T02:15:53;22.63;;;13.30;;
58071;SDS011;60383;46.626;18.866;2024-01-30T02:18:19;23.63;;;14.55;;
58071;SDS011;60383;46.626;18.866;2024-01-30T02:20:46;21.75;;;13.13;;
58071;SDS011;60383;46.626;18.866;2024-01-30T02:23:12;22.75;;;14.18;;
58071;SDS011;60383;46.626;18.866;2024-01-30T02:25:40;21.30;;;12.90;;
58071;SDS011;60383;46.626;18.866;2024-01-30T02:28:15;23.55;;;14.18;;
58071;SDS011;60383;46.626;18.866;2024-01-30T02:30:43;21.02;;;13.40;;
58071;SDS011;60383;46.626;18.866;2024-01-30T02:33:09;26.70;;;14.25;;
58071;SDS011;60383;46.626;18.866;2024-01-30T02:35:34;24.83;;;14.00;;
58071;SDS011;60383;46.626;18.866;2024-01-30T02:38:00;20.15;;;12.48;;
58071;SDS011;60383;46.626;18.866;2024-01-30T02:40:25;21.52;;;13.85;;
58071;SDS011;60383;46.626;18.866;2024-01-30T02:42:51;23.58;;;12.95;;
58071;SDS011;60383;46.626;18.866;2024-01-30T02:45:17;25.73;;;13.85;;
58071;SDS011;60383;46.626;18.866;2024-01-30T02:47:42;23.35;;;13.15;;
58071;SDS011;60383;46.626;18.866;2024-01-30T02:50:08;23.65;;;14.93;;
58071;SDS011;60383;46.626;18.866;2024-01-30T02:52:34;24.10;;;13.98;;
58071;SDS011;60383;46.626;18.866;2024-01-30T02:54:59;22.95;;;14.48;;
58071;SDS011;60383;46.626;18.866;2024-01-30T02:57:25;24.90;;;13.68;;
58071;SDS011;60383;46.626;18.866;2024-01-30T02:59:51;25.27;;;14.30;;
58071;SDS011;60383;46.626;18.866;2024-01-30T03:02:16;19.08;;;12.43;;
58071;SDS011;60383;46.626;18.866;2024-01-30T03:04:42;23.35;;;14.23;;
58071;SDS011;60383;46.626;18.866;2024-01-30T03:07:07;21.58;;;12.93;;
58071;SDS011;60383;46.626;18.866;2024-01-30T03:09:34;23.50;;;13.57;;
58071;SDS011;60383;46.626;18.866;2024-01-30T03:12:01;22.55;;;14.10;;
58071;SDS011;60383;46.626;18.866;2024-01-30T03:14:27;24.98;;;14.77;;
58071;SDS011;60383;46.626;18.866;2024-01-30T03:16:53;24.33;;;14.52;;
58071;SDS011;60383;46.626;18.866;2024-01-30T03:19:19;26.90;;;13.50;;
58071;SDS011;60383;46.626;18.866;2024-01-30T03:21:44;23.60;;;13.90;;
58071;SDS011;60383;46.626;18.866;2024-01-30T03:24:10;24.83;;;13.15;;
58071;SDS011;60383;46.626;18.866;2024-01-30T03:26:35;27.70;;;15.05;;
58071;SDS011;60383;46.626;18.866;2024-01-30T03:29:01;25.55;;;14.32;;
58071;SDS011;60383;46.626;18.866;2024-01-30T03:31:26;22.10;;;14.73;;
58071;SDS011;60383;46.626;18.866;2024-01-30T03:33:52;24.02;;;14.30;;
58071;SDS011;60383;46.626;18.866;2024-01-30T03:36:17;22.50;;;14.05;;
58071;SDS011;60383;46.626;18.866;2024-01-30T03:38:43;24.65;;;14.93;;
58071;SDS011;60383;46.626;18.866;2024-01-30T03:41:08;23.90;;;14.80;;
58071;SDS011;60383;46.626;18.866;2024-01-30T03:43:35;25.30;;;14.45;;
58071;SDS011;60383;46.626;18.866;2024-01-30T03:46:01;25.73;;;14.90;;
58071;SDS011;60383;46.626;18.866;2024-01-30T03:48:27;24.80;;;15.15;;
58071;SDS011;60383;46.626;18.866;2024-01-30T03:50:52;24.83;;;15.18;;
58071;SDS011;60383;46.626;18.866;2024-01-30T03:53:18;25.98;;;15.32;;
58071;SDS011;60383;46.626;18.866;2024-01-30T03:55:43;25.33;;;14.90;;
58071;SDS011;60383;46.626;18.866;2024-01-30T03:58:08;27.60;;;16.17;;
58071;SDS011;60383;46.626;18.866;2024-01-30T04:00:34;29.05;;;15.85;;
58071;SDS011;60383;46.626;18.866;2024-01-30T04:03:00;26.83;;;15.45;;
58071;SDS011;60383;46.626;18.866;2024-01-30T04:05:25;27.58;;;16.58;;
58071;SDS011;60383;46.626;18.866;2024-01-30T04:07:51;26.13;;;15.73;;
58071;SDS011;60383;46.626;18.866;2024-01-30T04:10:16;25.02;;;15.68;;
58071;SDS011;60383;46.626;18.866;2024-01-30T04:12:42;27.30;;;15.93;;
58071;SDS011;60383;46.626;18.866;2024-01-30T04:15:07;25.50;;;15.85;;
58071;SDS011;60383;46.626;18.866;2024-01-30T04:17:33;28.05;;;16.63;;
58071;SDS011;60383;46.626;18.866;2024-01-30T04:19:58;27.25;;;15.35;;
58071;SDS011;60383;46.626;18.866;2024-01-30T04:22:24;27.55;;;15.15;;
58071;SDS011;60383;46.626;18.866;2024-01-30T04:24:50;28.77;;;16.60;;
58071;SDS011;60383;46.626;18.866;2024-01-30T04:27:15;26.25;;;15.73;;
58071;SDS011;60383;46.626;18.866;2024-01-30T04:29:41;26.20;;;15.48;;
58071;SDS011;60383;46.626;18.866;2024-01-30T04:32:06;28.77;;;17.42;;
58071;SDS011;60383;46.626;18.866;2024-01-30T04:34:32;29.67;;;16.38;;
58071;SDS011;60383;46.626;18.866;2024-01-30T04:36:57;28.65;;;16.25;;
58071;SDS011;60383;46.626;18.866;2024-01-30T04:39:23;25.73;;;15.93;;
58071;SDS011;60383;46.626;18.866;2024-01-30T04:41:48;24.55;;;14.68;;
58071;SDS011;60383;46.626;18.866;2024-01-30T04:44:14;26.60;;;15.30;;
58071;SDS011;60383;46.626;18.866;2024-01-30T04:46:39;31.10;;;15.85;;
58071;SDS011;60383;46.626;18.866;2024-01-30T04:49:05;23.35;;;15.13;;
58071;SDS011;60383;46.626;18.866;2024-01-30T04:51:32;23.77;;;15.10;;
58071;SDS011;60383;46.626;18.866;2024-01-30T04:53:58;25.17;;;16.02;;
58071;SDS011;60383;46.626;18.866;2024-01-30T04:56:24;29.52;;;16.65;;
58071;SDS011;60383;46.626;18.866;2024-01-30T04:58:49;24.88;;;15.32;;
58071;SDS011;60383;46.626;18.866;2024-01-30T05:01:17;26.52;;;15.82;;
58071;SDS011;60383;46.626;18.866;2024-01-30T05:03:43;27.63;;;16.88;;
58071;SDS011;60383;46.626;18.866;2024-01-30T05:06:09;28.65;;;15.65;;
58071;SDS011;60383;46.626;18.866;2024-01-30T05:08:34;31.77;;;17.42;;
58071;SDS011;60383;46.626;18.866;2024-01-30T05:11:04;25.88;;;15.98;;
58071;SDS011;60383;46.626;18.866;2024-01-30T05:13:30;26.48;;;15.75;;
58071;SDS011;60383;46.626;18.866;2024-01-30T05:15:56;28.48;;;16.77;;
58071;SDS011;60383;46.626;18.866;2024-01-30T05:18:22;30.15;;;16.02;;
58071;SDS011;60383;46.626;18.866;2024-01-30T05:20:49;34.58;;;17.92;;
58071;SDS011;60383;46.626;18.866;2024-01-30T05:23:15;30.35;;;16.77;;
58071;SDS011;60383;46.626;18.866;2024-01-30T05:25:40;30.00;;;16.52;;
58071;SDS011;60383;46.626;18.866;2024-01-30T05:28:06;27.63;;;16.02;;
58071;SDS011;60383;46.626;18.866;2024-01-30T05:30:31;26.85;;;15.73;;
58071;SDS011;60383;46.626;18.866;2024-01-30T05:32:57;28.70;;;16.23;;
58071;SDS011;60383;46.626;18.866;2024-01-30T05:35:22;22.45;;;15.18;;
58071;SDS011;60383;46.626;18.866;2024-01-30T05:37:48;28.13;;;16.60;;
58071;SDS011;60383;46.626;18.866;2024-01-30T05:40:15;27.30;;;16.23;;
58071;SDS011;60383;46.626;18.866;2024-01-30T05:42:40;27.80;;;15.88;;
58071;SDS011;60383;46.626;18.866;2024-01-30T05:45:06;25.90;;;16.10;;
58071;SDS011;60383;46.626;18.866;2024-01-30T05:47:31;24.77;;;15.35;;
58071;SDS011;60383;46.626;18.866;2024-01-30T05:49:57;24.83;;;16.05;;
58071;SDS011;60383;46.626;18.866;2024-01-30T05:52:22;24.58;;;15.35;;
58071;SDS011;60383;46.626;18.866;2024-01-30T05:54:48;28.63;;;16.30;;
58071;SDS011;60383;46.626;18.866;2024-01-30T05:57:13;30.40;;;17.08;;
58071;SDS011;60383;46.626;18.866;2024-01-30T05:59:39;27.65;;;15.93;;
58071;SDS011;60383;46.626;18.866;2024-01-30T06:02:04;29.98;;;17.30;;
58071;SDS011;60383;46.626;18.866;2024-01-30T06:04:30;26.90;;;15.95;;
58071;SDS011;60383;46.626;18.866;2024-01-30T06:06:55;31.88;;;16.85;;
58071;SDS011;60383;46.626;18.866;2024-01-30T06:09:21;31.63;;;17.30;;
58071;SDS011;60383;46.626;18.866;2024-01-30T06:11:46;33.55;;;17.83;;
58071;SDS011;60383;46.626;18.866;2024-01-30T06:14:11;29.48;;;16.98;;
58071;SDS011;60383;46.626;18.866;2024-01-30T06:16:37;38.70;;;17.98;;
58071;SDS011;60383;46.626;18.866;2024-01-30T06:19:02;34.65;;;17.58;;
58071;SDS011;60383;46.626;18.866;2024-01-30T06:21:28;28.20;;;15.40;;
58071;SDS011;60383;46.626;18.866;2024-01-30T06:23:53;32.38;;;16.20;;
58071;SDS011;60383;46.626;18.866;2024-01-30T06:26:19;36.00;;;17.48;;
58071;SDS011;60383;46.626;18.866;2024-01-30T06:28:44;29.25;;;16.58;;
58071;SDS011;60383;46.626;18.866;2024-01-30T06:31:09;31.70;;;17.10;;
58071;SDS011;60383;46.626;18.866;2024-01-30T06:33:35;40.15;;;17.23;;
58071;SDS011;60383;46.626;18.866;2024-01-30T06:36:00;32.10;;;15.80;;
58071;SDS011;60383;46.626;18.866;2024-01-30T06:38:26;34.15;;;16.08;;
58071;SDS011;60383;46.626;18.866;2024-01-30T06:40:51;30.83;;;15.93;;
58071;SDS011;60383;46.626;18.866;2024-01-30T06:43:17;40.88;;;16.60;;
58071;SDS011;60383;46.626;18.866;2024-01-30T06:45:42;34.45;;;16.65;;
58071;SDS011;60383;46.626;18.866;2024-01-30T06:48:08;37.70;;;16.92;;
58071;SDS011;60383;46.626;18.866;2024-01-30T06:50:33;32.05;;;15.60;;
58071;SDS011;60383;46.626;18.866;2024-01-30T06:52:59;38.63;;;15.75;;
58071;SDS011;60383;46.626;18.866;2024-01-30T06:55:24;34.42;;;15.10;;
58071;SDS011;60383;46.626;18.866;2024-01-30T06:57:50;30.83;;;14.27;;
58071;SDS011;60383;46.626;18.866;2024-01-30T07:00:15;32.40;;;13.90;;
58071;SDS011;60383;46.626;18.866;2024-01-30T07:02:41;31.67;;;15.00;;
58071;SDS011;60383;46.626;18.866;2024-01-30T07:05:07;30.80;;;15.18;;
58071;SDS011;60383;46.626;18.866;2024-01-30T07:07:32;29.60;;;14.02;;
58071;SDS011;60383;46.626;18.866;2024-01-30T07:09:58;28.05;;;14.35;;
58071;SDS011;60383;46.626;18.866;2024-01-30T07:12:23;29.25;;;14.60;;
58071;SDS011;60383;46.626;18.866;2024-01-30T07:14:52;28.90;;;14.77;;
58071;SDS011;60383;46.626;18.866;2024-01-30T07:17:17;30.95;;;14.63;;
58071;SDS011;60383;46.626;18.866;2024-01-30T07:19:43;30.40;;;15.10;;
58071;SDS011;60383;46.626;18.866;2024-01-30T07:22:08;27.55;;;14.60;;
58071;SDS011;60383;46.626;18.866;2024-01-30T07:24:34;23.15;;;14.55;;
58071;SDS011;60383;46.626;18.866;2024-01-30T07:26:59;32.03;;;15.35;;
58071;SDS011;60383;46.626;18.866;2024-01-30T07:29:25;25.60;;;14.82;;
58071;SDS011;60383;46.626;18.866;2024-01-30T07:31:50;25.80;;;13.52;;
58071;SDS011;60383;46.626;18.866;2024-01-30T07:34:16;27.83;;;13.85;;
58071;SDS011;60383;46.626;18.866;2024-01-30T07:36:41;30.58;;;13.15;;
58071;SDS011;60383;46.626;18.866;2024-01-30T07:39:07;26.55;;;14.45;;
58071;SDS011;60383;46.626;18.866;2024-01-30T07:41:32;35.13;;;14.48;;
58071;SDS011;60383;46.626;18.866;2024-01-30T07:43:58;31.00;;;14.85;;
58071;SDS011;60383;46.626;18.866;2024-01-30T07:46:23;30.83;;;14.20;;
58071;SDS011;60383;46.626;18.866;2024-01-30T07:48:49;38.40;;;14.45;;
58071;SDS011;60383;46.626;18.866;2024-01-30T07:51:14;36.45;;;15.63;;
58071;SDS011;60383;46.626;18.866;2024-01-30T07:53:40;30.00;;;14.57;;
58071;SDS011;60383;46.626;18.866;2024-01-30T07:56:06;26.08;;;14.23;;
58071;SDS011;60383;46.626;18.866;2024-01-30T07:58:32;29.92;;;15.45;;
58071;SDS011;60383;46.626;18.866;2024-01-30T08:00:57;28.00;;;15.65;;
58071;SDS011;60383;46.626;18.866;2024-01-30T08:03:23;42.38;;;16.55;;
58071;SDS011;60383;46.626;18.866;2024-01-30T08:05:49;29.30;;;14.73;;
58071;SDS011;60383;46.626;18.866;2024-01-30T08:08:14;26.13;;;14.65;;
58071;SDS011;60383;46.626;18.866;2024-01-30T08:10:40;34.10;;;15.55;;
58071;SDS011;60383;46.626;18.866;2024-01-30T08:13:05;27.00;;;15.77;;
58071;SDS011;60383;46.626;18.866;2024-01-30T08:15:32;33.75;;;15.63;;
58071;SDS011;60383;46.626;18.866;2024-01-30T08:17:57;29.08;;;16.17;;
58071;SDS011;60383;46.626;18.866;2024-01-30T08:20:24;29.17;;;16.23;;
58071;SDS011;60383;46.626;18.866;2024-01-30T08:22:50;28.33;;;16.17;;
58071;SDS011;60383;46.626;18.866;2024-01-30T08:25:16;30.52;;;17.17;;
58071;SDS011;60383;46.626;18.866;2024-01-30T08:27:41;30.42;;;16.77;;
58071;SDS011;60383;46.626;18.866;2024-01-30T08:30:07;32.25;;;16.67;;
58071;SDS011;60383;46.626;18.866;2024-01-30T08:32:33;26.83;;;16.75;;
58071;SDS011;60383;46.626;18.866;2024-01-30T08:34:59;25.08;;;16.20;;
58071;SDS011;60383;46.626;18.866;2024-01-30T08:37:25;26.00;;;16.48;;
58071;SDS011;60383;46.626;18.866;2024-01-30T08:39:50;27.20;;;15.63;;
58071;SDS011;60383;46.626;18.866;2024-01-30T08:42:16;31.40;;;17.20;;
58071;SDS011;60383;46.626;18.866;2024-01-30T08:44:43;28.20;;;17.75;;
58071;SDS011;60383;46.626;18.866;2024-01-30T08:47:09;29.85;;;17.38;;
58071;SDS011;60383;46.626;18.866;2024-01-30T08:49:34;28.27;;;17.42;;
58071;SDS011;60383;46.626;18.866;2024-01-30T08:52:00;27.67;;;16.65;;
58071;SDS011;60383;46.626;18.866;2024-01-30T08:54:25;28.73;;;16.90;;
58071;SDS011;60383;46.626;18.866;2024-01-30T08:56:51;25.33;;;16.15;;
58071;SDS011;60383;46.626;18.866;2024-01-30T08:59:18;26.77;;;16.60;;
58071;SDS011;60383;46.626;18.866;2024-01-30T09:01:44;27.45;;;17.15;;
58071;SDS011;60383;46.626;18.866;2024-01-30T09:04:09;26.50;;;17.13;;
58071;SDS011;60383;46.626;18.866;2024-01-30T09:06:35;24.85;;;16.20;;
58071;SDS011;60383;46.626;18.866;2024-01-30T09:09:00;27.90;;;17.08;;
58071;SDS011;60383;46.626;18.866;2024-01-30T09:11:26;26.85;;;15.45;;
58071;SDS011;60383;46.626;18.866;2024-01-30T09:13:51;24.70;;;15.80;;
58071;SDS011;60383;46.626;18.866;2024-01-30T09:16:17;22.23;;;15.73;;
58071;SDS011;60383;46.626;18.866;2024-01-30T09:18:42;22.05;;;15.35;;
58071;SDS011;60383;46.626;18.866;2024-01-30T09:21:08;22.42;;;14.45;;
58071;SDS011;60383;46.626;18.866;2024-01-30T09:23:33;21.52;;;15.07;;
58071;SDS011;60383;46.626;18.866;2024-01-30T09:25:59;23.65;;;15.13;;
58071;SDS011;60383;46.626;18.866;2024-01-30T09:28:24;23.23;;;15.02;;
58071;SDS011;60383;46.626;18.866;2024-01-30T09:30:50;22.48;;;14.05;;
58071;SDS011;60383;46.626;18.866;2024-01-30T09:33:15;22.42;;;16.08;;
58071;SDS011;60383;46.626;18.866;2024-01-30T09:35:41;22.05;;;14.88;;
58071;SDS011;60383;46.626;18.866;2024-01-30T09:38:06;22.25;;;14.80;;
58071;SDS011;60383;46.626;18.866;2024-01-30T09:40:32;21.25;;;14.52;;
58071;SDS011;60383;46.626;18.866;2024-01-30T09:42:58;19.88;;;14.65;;
58071;SDS011;60383;46.626;18.866;2024-01-30T09:45:25;23.27;;;14.82;;
58071;SDS011;60383;46.626;18.866;2024-01-30T09:47:51;22.35;;;14.75;;
58071;SDS011;60383;46.626;18.866;2024-01-30T09:50:17;22.77;;;15.60;;
58071;SDS011;60383;46.626;18.866;2024-01-30T09:52:47;21.23;;;14.18;;
58071;SDS011;60383;46.626;18.866;2024-01-30T09:55:13;21.93;;;14.83;;
58071;SDS011;60383;46.626;18.866;2024-01-30T09:57:39;21.20;;;15.35;;
58071;SDS011;60383;46.626;18.866;2024-01-30T10:00:05;21.67;;;14.85;;
58071;SDS011;60383;46.626;18.866;2024-01-30T10:02:34;20.13;;;15.15;;
58071;SDS011;60383;46.626;18.866;2024-01-30T10:05:01;20.80;;;14.52;;
58071;SDS011;60383;46.626;18.866;2024-01-30T10:07:27;21.02;;;13.65;;
58071;SDS011;60383;46.626;18.866;2024-01-30T10:09:52;20.60;;;14.07;;
58071;SDS011;60383;46.626;18.866;2024-01-30T10:12:19;19.05;;;13.93;;
58071;SDS011;60383;46.626;18.866;2024-01-30T10:14:44;20.27;;;13.77;;
58071;SDS011;60383;46.626;18.866;2024-01-30T10:17:10;20.67;;;14.20;;
58071;SDS011;60383;46.626;18.866;2024-01-30T10:19:40;21.02;;;15.25;;
58071;SDS011;60383;46.626;18.866;2024-01-30T10:22:06;21.08;;;14.32;;
58071;SDS011;60383;46.626;18.866;2024-01-30T10:24:35;21.35;;;15.07;;
58071;SDS011;60383;46.626;18.866;2024-01-30T10:27:01;20.95;;;14.23;;
58071;SDS011;60383;46.626;18.866;2024-01-30T10:29:27;20.92;;;14.13;;
58071;SDS011;60383;46.626;18.866;2024-01-30T10:32:02;19.08;;;12.13;;
58071;SDS011;60383;46.626;18.866;2024-01-30T10:34:31;17.05;;;11.85;;
58071;SDS011;60383;46.626;18.866;2024-01-30T10:39:31;20.27;;;12.77;;
58071;SDS011;60383;46.626;18.866;2024-01-30T10:42:03;15.05;;;11.18;;
58071;SDS011;60383;46.626;18.866;2024-01-30T10:44:31;15.43;;;10.45;;
58071;SDS011;60383;46.626;18.866;2024-01-30T10:47:13;14.73;;;10.77;;
58071;SDS011;60383;46.626;18.866;2024-01-30T10:49:46;16.92;;;11.30;;
58071;SDS011;60383;46.626;18.866;2024-01-30T10:52:12;15.38;;;9.95;;
58071;SDS011;60383;46.626;18.866;2024-01-30T10:54:39;15.40;;;10.52;;
58071;SDS011;60383;46.626;18.866;2024-01-30T10:57:05;14.32;;;10.50;;
58071;SDS011;60383;46.626;18.866;2024-01-30T10:59:32;12.73;;;9.82;;
58071;SDS011;60383;46.626;18.866;2024-01-30T11:01:58;14.77;;;9.75;;
58071;SDS011;60383;46.626;18.866;2024-01-30T11:04:25;14.63;;;8.90;;
58071;SDS011;60383;46.626;18.866;2024-01-30T11:06:50;14.60;;;9.63;;
58071;SDS011;60383;46.626;18.866;2024-01-30T11:09:17;13.35;;;9.20;;
58071;SDS011;60383;46.626;18.866;2024-01-30T11:14:31;14.80;;;9.02;;
58071;SDS011;60383;46.626;18.866;2024-01-30T11:16:59;14.20;;;8.98;;
58071;SDS011;60383;46.626;18.866;2024-01-30T11:19:25;10.93;;;7.97;;
58071;SDS011;60383;46.626;18.866;2024-01-30T11:21:54;13.45;;;8.43;;
58071;SDS011;60383;46.626;18.866;2024-01-30T11:24:22;14.35;;;9.45;;
58071;SDS011;60383;46.626;18.866;2024-01-30T11:26:57;10.00;;;6.85;;
58071;SDS011;60383;46.626;18.866;2024-01-30T11:29:29;10.73;;;7.97;;
58071;SDS011;60383;46.626;18.866;2024-01-30T11:31:55;9.93;;;7.15;;
58071;SDS011;60383;46.626;18.866;2024-01-30T11:34:22;12.60;;;8.25;;
58071;SDS011;60383;46.626;18.866;2024-01-30T11:36:52;12.98;;;8.27;;
58071;SDS011;60383;46.626;18.866;2024-01-30T11:39:23;12.52;;;8.32;;
58071;SDS011;60383;46.626;18.866;2024-01-30T11:41:50;13.43;;;8.50;;
58071;SDS011;60383;46.626;18.866;2024-01-30T11:44:17;11.85;;;8.45;;
58071;SDS011;60383;46.626;18.866;2024-01-30T11:46:45;10.18;;;6.80;;
58071;SDS011;60383;46.626;18.866;2024-01-30T11:49:11;12.57;;;8.35;;
58071;SDS011;60383;46.626;18.866;2024-01-30T11:51:36;12.85;;;8.43;;
58071;SDS011;60383;46.626;18.866;2024-01-30T11:54:02;13.65;;;8.98;;
58071;SDS011;60383;46.626;18.866;2024-01-30T11:56:28;14.00;;;8.27;;
58071;SDS011;60383;46.626;18.866;2024-01-30T11:58:53;13.80;;;8.30;;
58071;SDS011;60383;46.626;18.866;2024-01-30T12:01:20;14.20;;;8.63;;
58071;SDS011;60383;46.626;18.866;2024-01-30T12:03:51;14.27;;;8.25;;
58071;SDS011;60383;46.626;18.866;2024-01-30T12:06:17;15.50;;;9.93;;
58071;SDS011;60383;46.626;18.866;2024-01-30T12:08:43;14.15;;;8.27;;
58071;SDS011;60383;46.626;18.866;2024-01-30T12:11:09;11.60;;;7.68;;
58071;SDS011;60383;46.626;18.866;2024-01-30T12:13:35;15.82;;;9.52;;
58071;SDS011;60383;46.626;18.866;2024-01-30T12:16:00;12.57;;;8.50;;
58071;SDS011;60383;46.626;18.866;2024-01-30T12:18:26;14.57;;;9.02;;
58071;SDS011;60383;46.626;18.866;2024-01-30T12:21:01;13.77;;;9.35;;
58071;SDS011;60383;46.626;18.866;2024-01-30T12:23:27;13.90;;;9.00;;
58071;SDS011;60383;46.626;18.866;2024-01-30T12:25:53;12.88;;;9.13;;
58071;SDS011;60383;46.626;18.866;2024-01-30T12:28:19;13.90;;;8.93;;
58071;SDS011;60383;46.626;18.866;2024-01-30T12:30:45;12.98;;;8.70;;
58071;SDS011;60383;46.626;18.866;2024-01-30T12:33:17;9.27;;;6.57;;
58071;SDS011;60383;46.626;18.866;2024-01-30T12:35:46;12.05;;;8.52;;
58071;SDS011;60383;46.626;18.866;2024-01-30T12:38:13;16.40;;;11.55;;
58071;SDS011;60383;46.626;18.866;2024-01-30T12:40:39;11.80;;;7.40;;
58071;SDS011;60383;46.626;18.866;2024-01-30T12:43:05;12.57;;;8.38;;
58071;SDS011;60383;46.626;18.866;2024-01-30T12:45:30;12.02;;;8.48;;
58071;SDS011;60383;46.626;18.866;2024-01-30T12:47:56;14.38;;;8.95;;
58071;SDS011;60383;46.626;18.866;2024-01-30T12:50:23;15.43;;;8.80;;
58071;SDS011;60383;46.626;18.866;2024-01-30T12:52:48;13.60;;;9.38;;
58071;SDS011;60383;46.626;18.866;2024-01-30T12:55:14;13.20;;;8.60;;
58071;SDS011;60383;46.626;18.866;2024-01-30T12:57:40;13.18;;;9.40;;
58071;SDS011;60383;46.626;18.866;2024-01-30T13:00:07;13.35;;;9.52;;
58071;SDS011;60383;46.626;18.866;2024-01-30T13:02:35;15.45;;;9.55;;
58071;SDS011;60383;46.626;18.866;2024-01-30T13:05:02;14.45;;;9.93;;
58071;SDS011;60383;46.626;18.866;2024-01-30T13:07:29;15.32;;;10.18;;
58071;SDS011;60383;46.626;18.866;2024-01-30T13:09:55;14.10;;;9.63;;
58071;SDS011;60383;46.626;18.866;2024-01-30T13:12:27;13.80;;;9.60;;
58071;SDS011;60383;46.626;18.866;2024-01-30T13:14:53;14.55;;;10.23;;
58071;SDS011;60383;46.626;18.866;2024-01-30T13:17:18;14.40;;;9.07;;
58071;SDS011;60383;46.626;18.866;2024-01-30T13:19:44;13.75;;;8.07;;
58071;SDS011;60383;46.626;18.866;2024-01-30T13:22:09;13.30;;;10.05;;
58071;SDS011;60383;46.626;18.866;2024-01-30T13:24:35;15.55;;;10.80;;
58071;SDS011;60383;46.626;18.866;2024-01-30T13:27:00;16.27;;;10.00;;
58071;SDS011;60383;46.626;18.866;2024-01-30T13:29:26;12.85;;;9.35;;
58071;SDS011;60383;46.626;18.866;2024-01-30T13:31:51;13.57;;;8.90;;
58071;SDS011;60383;46.626;18.866;2024-01-30T13:34:17;12.77;;;8.50;;
58071;SDS011;60383;46.626;18.866;2024-01-30T13:36:42;11.13;;;8.07;;
58071;SDS011;60383;46.626;18.866;2024-01-30T13:39:08;10.93;;;7.53;;
58071;SDS011;60383;46.626;18.866;2024-01-30T13:41:34;11.57;;;7.43;;
58071;SDS011;60383;46.626;18.866;2024-01-30T13:44:00;10.85;;;7.60;;
58071;SDS011;60383;46.626;18.866;2024-01-30T13:46:28;9.80;;;6.63;;
58071;SDS011;60383;46.626;18.866;2024-01-30T13:48:54;13.90;;;6.47;;
58071;SDS011;60383;46.626;18.866;2024-01-30T13:51:19;11.27;;;7.65;;
58071;SDS011;60383;46.626;18.866;2024-01-30T13:53:45;9.57;;;6.32;;
58071;SDS011;60383;46.626;18.866;2024-01-30T13:56:10;11.43;;;6.90;;
58071;SDS011;60383;46.626;18.866;2024-01-30T13:58:36;8.15;;;6.13;;
58071;SDS011;60383;46.626;18.866;2024-01-30T14:01:02;9.77;;;6.35;;
58071;SDS011;60383;46.626;18.866;2024-01-30T14:03:27;9.63;;;5.95;;
58071;SDS011;60383;46.626;18.866;2024-01-30T14:05:53;8.63;;;5.68;;
58071;SDS011;60383;46.626;18.866;2024-01-30T14:08:19;9.05;;;5.80;;
58071;SDS011;60383;46.626;18.866;2024-01-30T14:10:46;9.32;;;6.65;;